createdAt,value
2023-04-15T00:00:11.968Z,77.82
2023-04-15T00:05:13.266Z,78.13
2023-04-15T00:10:14.594Z,77.75
2023-04-15T00:15:16.391Z,77.29
2023-04-15T00:20:17.703Z,78.81
2023-04-15T00:25:18.927Z,78.39
2023-04-15T00:30:20.557Z,78.26
2023-04-15T00:35:21.867Z,78.77
2023-04-15T00:40:24.655Z,77.96
2023-04-15T00:45:26.159Z,77.31
2023-04-15T00:50:27.683Z,76.39
2023-04-15T00:55:29.040Z,75.61
2023-04-15T01:00:30.457Z,73.22
2023-04-15T01:05:31.863Z,73.86
2023-04-15T01:10:33.072Z,74.04
2023-04-15T01:20:36.319Z,75.35
2023-04-15T01:25:38.260Z,76.45
2023-04-15T01:30:39.507Z,77.09
2023-04-15T01:35:40.997Z,76.46
2023-04-15T01:40:42.255Z,77.04
2023-04-15T01:45:43.468Z,76.70
2023-04-15T01:50:44.680Z,78.51
2023-04-15T01:55:45.891Z,78.25
2023-04-15T02:00:47.274Z,78.60
2023-04-15T02:05:49.152Z,78.31
2023-04-15T02:10:50.923Z,76.88
2023-04-15T02:15:53.043Z,77.69
2023-04-15T02:20:54.603Z,78.30
2023-04-15T02:25:55.900Z,78.00
2023-04-15T02:30:59.227Z,77.62
2023-04-15T02:36:00.470Z,77.53
2023-04-15T02:41:01.720Z,76.82
2023-04-15T02:46:03.033Z,77.63
2023-04-15T02:51:04.286Z,77.17
2023-04-15T02:56:06.665Z,77.89
2023-04-15T03:01:08.947Z,78.19
2023-04-15T03:06:10.674Z,78.63
2023-04-15T03:11:12.612Z,79.74
2023-04-15T03:16:14.076Z,80.13
2023-04-15T03:21:15.512Z,80.72
2023-04-15T03:26:16.849Z,80.57
2023-04-15T03:31:18.197Z,81.27
2023-04-15T03:36:19.504Z,81.68
2023-04-15T03:41:20.709Z,82.12
2023-04-15T03:46:22.139Z,83.67
2023-04-15T03:51:23.486Z,82.75
2023-04-15T03:56:24.718Z,84.14
2023-04-15T04:01:26.208Z,85.62
2023-04-15T04:06:27.542Z,86.33
2023-04-15T04:11:28.827Z,86.93
2023-04-15T04:16:30.102Z,88.30
2023-04-15T04:21:34.059Z,88.61
2023-04-15T04:26:35.330Z,88.96
2023-04-15T04:31:37.032Z,90.31
2023-04-15T04:36:38.287Z,89.77
2023-04-15T04:41:39.510Z,89.71
2023-04-15T04:46:40.805Z,88.67
2023-04-15T04:51:42.090Z,86.56
2023-04-15T04:56:43.350Z,85.59
2023-04-15T05:01:44.703Z,86.60
2023-04-15T05:06:45.967Z,85.56
2023-04-15T05:11:47.172Z,84.86
2023-04-15T05:16:48.379Z,83.91
2023-04-15T05:21:49.593Z,85.15
2023-04-15T05:26:51.089Z,85.05
2023-04-15T05:31:52.345Z,86.64
2023-04-15T05:36:53.720Z,87.08
2023-04-15T05:41:54.971Z,87.67
2023-04-15T05:46:56.208Z,88.82
2023-04-15T05:51:57.499Z,87.72
2023-04-15T05:56:59.034Z,88.51
2023-04-15T06:02:00.368Z,88.09
2023-04-15T06:07:01.678Z,88.61
2023-04-15T06:12:03.140Z,89.22
2023-04-15T06:17:04.523Z,89.14
2023-04-15T06:22:07.277Z,89.12
2023-04-15T06:27:08.526Z,88.67
2023-04-15T06:32:09.812Z,87.23
2023-04-15T06:37:15.865Z,86.57
2023-04-15T06:42:17.103Z,86.98
2023-04-15T06:47:18.488Z,87.19
2023-04-15T06:52:19.754Z,87.96
2023-04-15T06:57:21.231Z,87.74
2023-04-15T07:02:22.545Z,85.65
2023-04-15T07:07:23.860Z,85.48
2023-04-15T07:12:25.236Z,84.99
2023-04-15T07:17:26.531Z,85.94
2023-04-15T07:22:27.906Z,85.50
2023-04-15T07:27:29.285Z,85.39
2023-04-15T07:32:30.632Z,85.06
2023-04-15T07:37:32.295Z,83.59
2023-04-15T07:42:34.166Z,83.81
2023-04-15T07:47:35.678Z,83.58
2023-04-15T07:52:39.394Z,81.30
2023-04-15T07:57:40.847Z,84.29
2023-04-15T08:02:43.038Z,84.80
2023-04-15T08:07:44.487Z,84.06
2023-04-15T08:12:49.080Z,85.36
2023-04-15T08:17:50.524Z,86.58
2023-04-15T08:22:52.554Z,86.48
2023-04-15T08:27:53.846Z,87.21
2023-04-15T08:32:55.294Z,87.90
2023-04-15T08:37:56.698Z,86.44
2023-04-15T08:42:57.916Z,87.47
2023-04-15T08:47:59.191Z,87.26
2023-04-15T08:53:00.542Z,87.99
2023-04-15T08:58:01.791Z,87.29
2023-04-15T09:03:03.168Z,87.00
2023-04-15T09:08:04.706Z,86.17
2023-04-15T09:13:05.991Z,86.29
2023-04-15T09:18:07.254Z,87.78
2023-04-15T09:23:09.543Z,86.57
2023-04-15T09:28:11.382Z,84.92
2023-04-15T09:33:12.720Z,84.16
2023-04-15T09:38:13.939Z,84.65
2023-04-15T09:43:16.815Z,84.58
2023-04-15T09:48:18.110Z,86.47
2023-04-15T09:53:19.568Z,85.26
2023-04-15T09:58:20.912Z,87.05
2023-04-15T10:03:22.457Z,87.15
2023-04-15T10:08:24.942Z,85.54
2023-04-15T10:13:26.314Z,84.54
2023-04-15T10:18:29.233Z,85.37
2023-04-15T10:23:30.497Z,84.45
2023-04-15T10:28:31.756Z,83.20
2023-04-15T10:33:33.554Z,83.81
2023-04-15T10:38:34.904Z,82.32
2023-04-15T10:43:36.154Z,82.56
2023-04-15T10:48:37.422Z,81.54
2023-04-15T10:53:39.992Z,82.15
2023-04-15T10:58:41.232Z,81.39
2023-04-15T11:03:42.496Z,80.79
2023-04-15T11:08:43.873Z,78.29
2023-04-15T11:13:45.689Z,77.18
2023-04-15T11:18:46.983Z,77.15
2023-04-15T11:23:48.208Z,76.74
2023-04-15T11:28:49.474Z,76.50
2023-04-15T11:33:51.058Z,75.15
2023-04-15T11:38:52.356Z,75.17
2023-04-15T11:43:53.619Z,75.15
2023-04-15T11:48:54.835Z,75.42
2023-04-15T11:53:56.868Z,73.36
2023-04-15T11:59:01.300Z,73.33
2023-04-15T12:04:04.266Z,75.40
2023-04-15T12:09:05.898Z,76.87
2023-04-15T12:14:07.552Z,74.75
2023-04-15T12:19:08.904Z,74.48
2023-04-15T12:24:10.387Z,75.79
2023-04-15T12:29:11.603Z,76.05
2023-04-15T12:34:14.041Z,75.05
2023-04-15T12:39:15.304Z,75.21
2023-04-15T12:44:16.915Z,74.11
2023-04-15T12:49:20.804Z,73.76
2023-04-15T12:54:22.002Z,74.57
2023-04-15T12:59:24.178Z,74.71
2023-04-15T13:04:25.712Z,74.64
2023-04-15T13:09:27.157Z,74.41
2023-04-15T13:14:28.532Z,75.47
2023-04-15T13:19:29.768Z,72.05
2023-04-15T13:24:31.092Z,73.84
2023-04-15T13:29:32.626Z,72.59
2023-04-15T13:34:33.830Z,73.00
2023-04-15T13:39:35.174Z,75.32
2023-04-15T13:44:36.462Z,75.21
2023-04-15T13:49:37.713Z,74.85
2023-04-15T13:54:38.960Z,75.71
2023-04-15T13:59:40.451Z,77.43
2023-04-15T14:04:41.714Z,78.89
2023-04-15T14:09:43.547Z,79.79
2023-04-15T14:14:44.833Z,81.95
2023-04-15T14:19:46.183Z,82.33
2023-04-15T14:24:49.172Z,82.31
2023-04-15T14:29:50.671Z,80.96
2023-04-15T14:34:51.899Z,82.42
2023-04-15T14:39:53.182Z,82.96
2023-04-15T14:44:54.441Z,82.95
2023-04-15T14:49:55.972Z,81.14
2023-04-15T14:54:57.306Z,82.00
2023-04-15T14:59:59.236Z,81.48
2023-04-15T15:05:00.667Z,80.88
2023-04-15T15:10:03.812Z,80.71
2023-04-15T15:15:12.173Z,81.32
2023-04-15T15:20:17.467Z,80.48
2023-04-15T15:25:18.766Z,80.79
2023-04-15T15:30:20.025Z,80.94
2023-04-15T15:35:22.958Z,79.64
2023-04-15T15:40:24.277Z,79.91
2023-04-15T15:45:25.559Z,79.82
2023-04-15T15:50:26.907Z,79.46
2023-04-15T15:55:28.271Z,78.78
2023-04-15T16:00:29.650Z,78.42
2023-04-15T16:05:31.168Z,77.53
2023-04-15T16:10:32.495Z,77.71
2023-04-15T16:15:34.431Z,74.43
2023-04-15T16:20:35.740Z,74.67
2023-04-15T16:25:36.989Z,75.85
2023-04-15T16:30:38.772Z,76.42
2023-04-15T16:35:39.996Z,78.32
2023-04-15T16:40:42.537Z,78.02
2023-04-15T16:45:45.346Z,77.03
2023-04-15T16:50:46.640Z,76.30
2023-04-15T16:55:47.938Z,74.97
2023-04-15T17:00:49.240Z,77.45
2023-04-15T17:05:50.708Z,77.71
2023-04-15T17:10:51.982Z,77.18
2023-04-15T17:15:55.611Z,77.07
2023-04-15T17:20:57.218Z,76.85
2023-04-15T17:25:58.417Z,76.57
2023-04-15T17:30:59.701Z,76.80
2023-04-15T17:36:00.968Z,76.73
2023-04-15T17:41:02.271Z,77.42
2023-04-15T17:46:03.540Z,76.21
2023-04-15T17:51:04.861Z,76.55
2023-04-15T17:56:06.099Z,77.00
2023-04-15T18:01:07.368Z,78.13
2023-04-15T18:06:08.593Z,76.74
2023-04-15T18:11:12.028Z,79.54
2023-04-15T18:16:13.348Z,75.62
2023-04-15T18:21:14.659Z,76.84
2023-04-15T18:26:16.001Z,77.78
2023-04-15T18:31:17.353Z,78.01
2023-04-15T18:36:18.621Z,78.60
2023-04-15T18:41:19.887Z,79.08
2023-04-15T18:46:21.241Z,78.77
2023-04-15T18:51:22.499Z,78.99
2023-04-15T18:56:23.718Z,79.57
2023-04-15T19:01:25.248Z,79.71
2023-04-15T19:06:27.217Z,80.28
2023-04-15T19:11:28.555Z,79.83
2023-04-15T19:16:29.817Z,80.67
2023-04-15T19:21:31.851Z,81.71
2023-04-15T19:26:33.058Z,78.90
2023-04-15T19:31:34.301Z,80.97
2023-04-15T19:36:35.710Z,81.92
2023-04-15T19:41:38.636Z,82.99
2023-04-15T19:46:40.034Z,82.87
2023-04-15T19:51:41.424Z,83.06
2023-04-15T19:56:42.642Z,83.00
2023-04-15T20:01:43.987Z,81.80
2023-04-15T20:06:45.408Z,82.57
2023-04-15T20:12:46.927Z,82.17
2023-04-15T20:17:08.020Z,83.05
2023-04-15T20:22:09.632Z,83.02
2023-04-15T20:27:11.191Z,82.81
2023-04-15T20:32:12.807Z,82.99
2023-04-15T20:37:14.084Z,82.93
2023-04-15T20:42:15.383Z,82.88
2023-04-15T20:47:16.774Z,83.77
2023-04-15T20:52:18.082Z,83.69
2023-04-15T20:57:20.363Z,82.21
2023-04-15T21:02:21.722Z,83.51
2023-04-15T21:07:23.110Z,82.59
2023-04-15T21:12:24.375Z,82.07
2023-04-15T21:17:25.671Z,82.21
2023-04-15T21:22:26.922Z,81.26
2023-04-15T21:27:28.279Z,79.60
2023-04-15T21:32:30.778Z,78.11
2023-04-15T21:37:32.521Z,76.70
2023-04-15T21:42:33.897Z,76.43
2023-04-15T21:48:06.847Z,77.64
2023-04-15T21:52:56.457Z,78.45
2023-04-15T21:57:57.668Z,79.25
2023-04-15T22:02:59.732Z,78.60
2023-04-15T22:08:04.475Z,78.03
2023-04-15T22:13:08.552Z,77.50
2023-04-15T22:18:09.857Z,76.59
2023-04-15T22:23:11.062Z,75.95
2023-04-15T22:28:12.313Z,76.09
2023-04-15T22:33:13.581Z,75.92
2023-04-15T22:38:14.888Z,76.52
2023-04-15T22:43:16.198Z,76.94
2023-04-15T22:48:17.407Z,77.58
2023-04-15T22:53:18.676Z,76.49
2023-04-15T22:58:19.949Z,76.19
2023-04-15T23:03:21.374Z,77.33
2023-04-15T23:08:23.931Z,77.69
2023-04-15T23:13:25.575Z,81.80
2023-04-15T23:18:27.540Z,83.96
2023-04-15T23:23:28.760Z,85.83
2023-04-15T23:28:30.316Z,87.40
2023-04-15T23:33:32.587Z,87.29
2023-04-15T23:38:33.895Z,87.76
2023-04-15T23:43:35.344Z,86.81
2023-04-15T23:48:36.635Z,87.32
2023-04-15T23:53:37.905Z,87.23
2023-04-15T23:58:39.189Z,88.01
